.
WxDataArchive / Data Records for 2008-04-11
2008-04-10 April 2008 2008-04-12

Data Records for Friday, 11 April 2008

Time	Temp	Chill	HIndex	Humid	Dewpt	 Wind 	HiWind	WindDir	Rain 	Barom 
-----	----	-----	------	-----	-----	------	------	-------	-----	----- 
00:00	46.0	44.2	46.0	94	44.4	4	11	112	0.03	29.715 
00:05	45.8	43.3	45.8	95	44.4	5	11	112	0.03	29.703 
00:10	45.8	43.3	45.8	95	44.4	5	11	112	0.01	29.695 
00:15	45.8	43.3	45.8	95	44.4	5	10	112	0.00	29.689 
00:20	45.8	42.7	45.8	95	44.4	6	12	112	0.02	29.686 
00:25	45.8	42.7	45.8	95	44.4	6	11	112	0.01	29.674 
00:30	46.0	42.4	46.0	95	44.6	7	12	90	0.00	29.653 
00:35	46.0	42.4	46.0	95	44.6	7	14	90	0.01	29.648 
00:40	46.0	42.9	46.0	96	44.9	6	13	90	0.01	29.650 
00:45	46.2	43.1	46.2	96	45.1	6	13	112	0.00	29.647 
00:50	46.2	43.1	46.2	96	45.1	6	11	112	0.01	29.638 
00:55	46.4	43.4	46.4	96	45.3	6	11	112	0.01	29.632 
01:00	46.4	43.4	46.4	96	45.3	6	13	112	0.00	29.624 
01:05	46.4	43.4	46.4	96	45.3	6	15	112	0.00	29.622 
01:10	46.5	44.1	46.5	96	45.4	5	10	112	0.00	29.628 
01:15	46.5	44.1	46.5	96	45.4	5	9	112	0.00	29.625 
01:20	46.7	43.7	46.7	96	45.6	6	10	112	0.00	29.622 
01:25	46.8	44.5	46.8	96	45.7	5	10	112	0.00	29.623 
01:30	46.8	44.5	46.8	96	45.7	5	10	112	0.00	29.622 
01:35	46.8	45.2	46.8	96	45.7	4	10	112	0.00	29.619 
01:40	47.0	45.4	47.0	96	45.9	4	11	90	0.00	29.620 
01:45	47.0	47.0	47.0	96	45.9	3	7	112	0.00	29.621 
01:50	47.3	45.8	47.3	96	46.2	4	7	112	0.01	29.621 
01:55	47.4	45.9	47.4	96	46.3	4	10	90	0.01	29.607 
02:00	47.6	46.1	47.6	96	46.5	4	7	90	0.00	29.603 
02:05	47.7	45.5	47.7	96	46.6	5	9	112	0.00	29.603 
02:10	47.9	47.9	47.9	96	46.8	3	6	112	0.00	29.607 
02:15	48.2	48.2	48.2	96	47.1	3	7	112	0.00	29.614 
02:20	48.3	48.3	48.3	96	47.2	3	6	112	0.01	29.613 
02:25	48.6	48.6	48.6	96	47.5	3	7	90	0.00	29.605 
02:30	48.8	48.8	48.8	96	47.7	2	5	90	0.01	29.609 
02:35	49.1	49.1	49.1	96	48.0	2	4	90	0.00	29.608 
02:40	49.2	49.2	49.2	96	48.1	3	5	90	0.00	29.601 
02:45	49.5	48.3	49.5	96	48.4	4	9	90	0.00	29.589 
02:50	49.6	49.6	49.6	96	48.5	3	6	112	0.00	29.582 
02:55	49.8	48.6	49.8	96	48.7	4	6	112	0.00	29.585 
03:00	49.6	49.6	49.6	95	48.2	3	6	90	0.00	29.581 
03:05	49.6	49.6	49.6	95	48.2	3	5	112	0.00	29.580 
03:10	49.8	49.8	49.8	96	48.7	3	6	90	0.00	29.581 
03:15	49.9	49.9	49.9	96	48.8	2	5	112	0.00	29.578 
03:20	49.9	49.9	49.9	96	48.8	2	5	90	0.00	29.579 
03:25	49.9	49.9	49.9	96	48.8	3	6	90	0.00	29.566 
03:30	49.9	49.9	49.9	96	48.8	0	2	90	0.00	29.573 
03:35	49.9	49.9	49.9	96	48.8	1	3	90	0.00	29.568 
03:40	50.1	50.1	50.1	96	49.0	1	4	112	0.00	29.571 
03:45	50.1	50.1	50.1	96	49.0	0	2	112	0.00	29.576 
03:50	50.2	50.2	50.2	96	49.1	1	2	112	0.00	29.568 
03:55	50.4	50.4	50.4	96	49.3	1	3	112	0.00	29.567 
04:00	50.5	50.5	50.5	96	49.4	0	1	112	0.00	29.570 
04:05	50.7	50.7	50.7	96	49.6	0	2	112	0.00	29.573 
04:10	50.8	50.8	50.8	96	49.7	0	2	112	0.00	29.572 
04:15	51.0	51.0	51.0	96	49.9	0	2	112	0.00	29.568 
04:20	51.1	51.1	51.1	96	50.0	0	0	---	0.00	29.568 
04:25	51.0	51.0	51.0	96	49.9	0	0	---	0.00	29.567 
04:30	51.1	51.1	51.1	96	50.0	0	1	112	0.00	29.557 
04:35	51.3	51.3	51.3	96	50.2	0	2	112	0.00	29.568 
04:40	51.4	51.4	51.4	97	50.6	0	1	112	0.00	29.567 
04:45	51.6	51.6	51.6	97	50.8	0	0	---	0.00	29.565 
04:50	51.6	51.6	51.6	97	50.8	0	0	---	0.00	29.559 
04:55	51.6	51.6	51.6	97	50.8	0	0	---	0.00	29.553 
05:00	51.6	51.6	51.6	97	50.8	0	1	112	0.00	29.550 
05:05	51.6	51.6	51.6	97	50.8	0	0	---	0.00	29.553 
05:10	51.6	51.6	51.6	97	50.8	0	0	---	0.00	29.550 
05:15	51.4	51.4	51.4	97	50.6	0	0	---	0.00	29.554 
05:20	51.3	51.3	51.3	96	50.2	0	1	112	0.00	29.553 
05:25	51.1	51.1	51.1	97	50.3	0	1	112	0.00	29.554 
05:30	51.1	51.1	51.1	97	50.3	0	1	112	0.00	29.548 
05:35	51.1	51.1	51.1	97	50.3	0	1	112	0.00	29.541 
05:40	51.0	51.0	51.0	97	50.2	0	0	---	0.00	29.552 
05:45	51.6	51.6	51.6	97	50.8	0	1	112	0.00	29.551 
05:50	52.2	52.2	52.2	97	51.4	0	1	112	0.00	29.548 
05:55	52.6	52.6	52.6	97	51.8	0	1	112	0.00	29.548 
06:00	52.6	52.6	52.6	97	51.8	0	0	---	0.00	29.550 
06:05	52.6	52.6	52.6	97	51.8	0	0	---	0.00	29.550 
06:10	52.8	52.8	52.8	97	52.0	0	1	112	0.00	29.549 
06:15	52.8	52.8	52.8	97	52.0	0	0	---	0.00	29.550 
06:20	52.8	52.8	52.8	97	52.0	0	1	112	0.00	29.551 
06:25	52.8	52.8	52.8	97	52.0	0	1	112	0.00	29.550 
06:30	52.8	52.8	52.8	97	52.0	0	1	112	0.00	29.549 
06:35	52.8	52.8	52.8	97	52.0	0	1	112	0.00	29.550 
06:40	52.5	52.5	52.5	97	51.7	0	0	---	0.00	29.554 
06:45	52.3	52.3	52.3	96	51.2	0	1	112	0.00	29.557 
06:50	52.2	52.2	52.2	96	51.1	0	1	112	0.00	29.557 
06:55	52.2	52.2	52.2	96	51.1	0	2	112	0.00	29.560 
07:00	52.3	52.3	52.3	96	51.2	0	2	112	0.00	29.563 
07:05	52.3	52.3	52.3	96	51.2	0	1	112	0.00	29.565 
07:10	52.6	52.6	52.6	96	51.5	0	1	90	0.00	29.566 
07:15	52.9	52.9	52.9	96	51.8	0	2	158	0.00	29.567 
07:20	53.3	53.3	53.3	96	52.2	1	2	158	0.00	29.570 
07:25	53.9	53.9	53.9	95	52.5	1	2	158	0.00	29.569 
07:30	54.5	54.5	54.5	95	53.1	1	2	112	0.00	29.570 
07:35	55.3	55.3	55.3	94	53.6	1	5	270	0.00	29.565 
07:40	55.9	55.9	55.9	93	53.9	1	4	315	0.00	29.562 
07:45	56.5	56.5	56.5	92	54.2	1	3	248	0.00	29.560 
07:50	57.0	57.0	57.0	92	54.7	1	6	225	0.00	29.560 
07:55	57.6	57.6	57.6	91	55.0	2	6	248	0.00	29.554 
08:00	58.3	58.3	58.3	90	55.4	2	6	248	0.00	29.547 
08:05	58.9	58.9	58.9	90	56.0	1	4	90	0.00	29.544 
08:10	59.3	59.3	59.3	89	56.1	1	4	270	0.00	29.543 
08:15	59.8	59.8	59.8	89	56.5	1	7	22	0.00	29.539 
08:20	60.2	60.2	60.2	88	56.6	1	5	292	0.00	29.528 
08:25	60.7	60.7	60.7	87	56.8	2	7	68	0.00	29.526 
08:30	61.2	61.2	61.2	87	57.3	1	5	112	0.00	29.526 
08:35	61.5	61.5	61.5	86	57.3	2	5	90	0.00	29.522 
08:40	62.0	62.0	62.0	86	57.8	2	7	90	0.00	29.522 
08:45	62.4	62.4	62.4	84	57.5	2	5	112	0.00	29.518 
08:50	62.9	62.9	62.9	82	57.3	2	5	112	0.00	29.519 
08:55	63.2	63.2	63.2	81	57.3	3	6	90	0.00	29.514 
09:00	63.5	63.5	63.5	81	57.6	3	9	90	0.00	29.510 
09:05	63.7	63.7	63.7	80	57.4	4	9	112	0.00	29.511 
09:10	64.2	64.2	64.2	80	57.9	3	6	90	0.00	29.511 
09:15	64.3	64.3	64.3	80	58.0	3	9	90	0.00	29.510 
09:20	64.8	64.8	64.8	79	58.1	3	5	112	0.00	29.508 
09:25	65.2	65.2	65.2	78	58.2	3	6	112	0.00	29.508 
09:30	65.3	65.3	65.3	78	58.3	3	9	90	0.00	29.506 
09:35	65.8	65.8	65.8	78	58.7	2	7	90	0.00	29.510 
09:40	66.1	66.1	66.1	76	58.3	3	9	90	0.00	29.509 
09:45	66.4	66.4	66.4	75	58.2	3	9	90	0.00	29.518 
09:50	66.4	66.4	66.4	74	57.9	4	13	90	0.00	29.520 
09:55	66.4	66.4	66.4	73	57.5	4	9	90	0.00	29.523 
10:00	66.6	66.6	66.6	74	58.0	3	10	90	0.00	29.522 
10:05	66.8	66.8	66.8	72	57.5	4	12	90	0.00	29.529 
10:10	66.6	66.6	66.6	72	57.3	5	13	90	0.00	29.524 
10:15	66.6	66.6	66.6	74	58.0	3	9	270	0.00	29.519 
10:20	66.9	66.9	66.9	72	57.6	4	10	270	0.00	29.514 
10:25	67.3	67.3	67.3	70	57.2	3	11	45	0.00	29.512 
10:30	67.8	67.8	67.8	68	56.8	4	9	90	0.00	29.504 
10:35	68.3	68.3	68.3	68	57.3	3	10	0	0.00	29.504 
10:40	68.8	68.8	68.8	65	56.5	4	10	90	0.00	29.496 
10:45	68.9	68.9	68.9	64	56.2	4	9	112	0.00	29.488 
10:50	69.1	69.1	69.1	64	56.4	4	10	90	0.00	29.485 
10:55	69.3	69.3	69.3	62	55.7	5	13	90	0.00	29.482 
11:00	69.4	69.4	69.4	62	55.8	5	11	90	0.00	29.470 
11:05	69.3	69.3	69.3	60	54.8	4	11	90	0.00	29.470 
11:10	68.8	68.8	68.8	62	55.2	4	8	90	0.00	29.472 
11:15	68.1	68.1	68.1	63	55.0	5	17	90	0.00	29.470 
11:20	68.1	68.1	68.1	63	55.0	5	12	90	0.00	29.473 
11:25	68.1	68.1	68.1	62	54.6	4	10	112	0.00	29.474 
11:30	68.1	68.1	68.1	62	54.6	4	11	90	0.00	29.451 
11:35	68.3	68.3	68.3	62	54.8	3	10	90	0.00	29.458 
11:40	68.1	68.1	68.1	61	54.1	5	14	90	0.00	29.458 
11:45	68.1	68.1	68.1	61	54.1	4	12	112	0.00	29.457 
11:50	68.3	68.3	68.3	57	52.5	6	11	90	0.00	29.455 
11:55	68.8	68.8	68.8	57	52.9	5	11	90	0.00	29.448 
12:00	68.6	68.6	68.6	59	53.7	4	12	90	0.00	29.440 
12:05	68.4	68.4	68.4	59	53.5	6	15	90	0.00	29.446 
12:10	68.4	68.4	68.4	59	53.5	6	17	90	0.00	29.442 
12:15	68.1	68.1	68.1	59	53.2	5	12	90	0.00	29.441 
12:20	67.9	67.9	67.9	59	53.0	6	13	112	0.00	29.439 
12:25	67.8	67.8	67.8	60	53.4	5	12	68	0.00	29.438 
12:30	67.4	67.4	67.4	60	53.0	5	16	90	0.00	29.438 
12:35	67.6	67.6	67.6	59	52.8	5	11	112	0.00	29.425 
12:40	67.8	67.8	67.8	59	52.9	5	14	90	0.00	29.426 
12:45	68.1	68.1	68.1	61	54.1	3	9	90	0.00	29.429 
12:50	68.6	68.6	68.6	59	53.7	5	11	90	0.00	29.427 
12:55	68.6	68.6	68.6	60	54.1	5	13	112	0.00	29.429 
13:00	68.4	68.4	68.4	58	53.0	4	10	90	0.00	29.424 
13:05	68.3	68.3	68.3	59	53.4	5	12	90	0.00	29.422 
13:10	68.3	68.3	68.3	61	54.3	5	16	90	0.00	29.422 
13:15	68.6	68.6	68.6	61	54.6	4	11	90	0.00	29.419 
13:20	68.6	68.6	68.6	60	54.1	6	16	112	0.00	29.411 
13:25	69.3	69.3	69.3	61	55.3	4	11	112	0.00	29.411 
13:30	69.1	69.1	69.1	60	54.6	5	14	90	0.00	29.408 
13:35	69.3	69.3	69.3	58	53.9	6	13	90	0.00	29.405 
13:40	69.3	69.3	69.3	56	52.9	7	21	68	0.00	29.406 
13:45	69.3	69.3	69.3	54	51.9	5	16	90	0.00	29.396 
13:50	69.3	69.3	69.3	59	54.3	5	15	68	0.00	29.396 
13:55	68.8	68.8	68.8	57	52.9	6	15	68	0.00	29.396 
14:00	68.6	68.6	68.6	59	53.7	7	15	68	0.00	29.389 
14:05	68.4	68.4	68.4	59	53.5	5	13	90	0.00	29.385 
14:10	68.4	68.4	68.4	61	54.4	5	16	270	0.00	29.383 
14:15	68.9	68.9	68.9	60	54.4	5	13	90	0.00	29.380 
14:20	69.1	69.1	69.1	60	54.6	6	13	270	0.00	29.382 
14:25	69.3	69.3	69.3	59	54.3	5	16	90	0.00	29.373 
14:30	69.4	69.4	69.4	59	54.4	5	11	68	0.00	29.364 
14:35	68.9	68.9	68.9	61	54.9	8	18	90	0.00	29.360 
14:40	68.9	68.9	68.9	61	54.9	7	16	68	0.00	29.350 
14:45	68.9	68.9	68.9	61	54.9	7	21	90	0.00	29.338 
14:50	68.9	68.9	68.9	62	55.3	5	12	68	0.00	29.340 
14:55	68.6	68.6	68.6	61	54.6	6	13	90	0.00	29.346 
15:00	68.4	68.4	68.4	62	54.9	7	18	90	0.00	29.346 
15:05	67.8	67.8	67.8	65	55.6	7	16	90	0.00	29.339 
15:10	67.3	67.3	67.3	65	55.1	7	16	90	0.00	29.342 
15:15	66.6	66.6	66.6	67	55.3	5	11	90	0.00	29.334 
15:20	66.3	66.3	66.3	66	54.6	5	12	90	0.00	29.323 
15:25	66.3	66.3	66.3	67	55.0	4	11	90	0.00	29.320 
15:30	66.3	66.3	66.3	66	54.6	5	12	68	0.00	29.326 
15:35	66.3	66.3	66.3	67	55.0	4	12	90	0.00	29.328 
15:40	66.1	66.1	66.1	68	55.2	3	10	90	0.01	29.312 
15:45	65.8	65.8	65.8	70	55.7	3	11	90	0.00	29.328 
15:50	64.3	64.3	64.3	77	56.9	4	13	270	0.13	29.341 
15:55	61.0	61.0	61.0	84	56.1	5	14	270	0.18	29.345 
16:00	60.1	60.1	60.1	89	56.8	3	6	248	0.02	29.356 
16:05	59.8	59.8	59.8	91	57.2	3	11	270	0.04	29.335 
16:10	60.1	60.1	60.1	92	57.8	4	13	270	0.00	29.346 
16:15	60.7	60.7	60.7	93	58.7	3	7	270	0.00	29.347 
16:20	60.5	60.5	60.5	92	58.2	3	7	270	0.00	29.355 
16:25	60.9	60.9	60.9	92	58.6	3	7	270	0.00	29.349 
16:30	61.6	61.6	61.6	92	59.2	2	6	270	0.00	29.347 
16:35	61.6	61.6	61.6	84	56.7	5	9	270	0.00	29.352 
16:40	62.1	62.1	62.1	70	52.2	5	11	270	0.00	29.346 
16:45	62.7	62.7	62.7	67	51.6	5	13	270	0.00	29.357 
16:50	62.9	62.9	62.9	61	49.2	7	10	270	0.00	29.361 
16:55	63.1	63.1	63.1	62	49.9	5	12	270	0.00	29.361 
17:00	63.2	63.2	63.2	59	48.6	5	10	270	0.00	29.358 
17:05	63.2	63.2	63.2	58	48.2	5	7	270	0.00	29.354 
17:10	63.1	63.1	63.1	57	47.6	5	12	270	0.00	29.360 
17:15	62.6	62.6	62.6	56	46.7	5	10	270	0.00	29.363 
17:20	62.3	62.3	62.3	54	45.4	7	17	270	0.00	29.368 
17:25	62.0	62.0	62.0	54	45.2	5	14	270	0.00	29.363 
17:30	61.3	61.3	61.3	54	44.5	6	12	270	0.00	29.371 
17:35	61.0	61.0	61.0	52	43.2	5	11	270	0.00	29.378 
17:40	60.5	60.5	60.5	52	42.8	5	10	270	0.00	29.388 
17:45	60.4	60.4	60.4	53	43.2	6	14	270	0.00	29.392 
17:50	59.9	59.9	59.9	54	43.2	6	12	270	0.00	29.397 
17:55	59.2	59.2	59.2	55	43.0	5	12	270	0.00	29.402 
18:00	58.4	58.4	58.4	56	42.8	6	14	270	0.00	29.403 
18:05	58.0	58.0	58.0	58	43.3	4	9	292	0.00	29.410 
18:10	57.2	57.2	57.2	59	43.0	4	10	270	0.00	29.416 
18:15	56.9	56.9	56.9	59	42.7	5	11	270	0.00	29.421 
18:20	56.2	56.2	56.2	58	41.6	5	13	270	0.00	29.428 
18:25	55.4	55.4	55.4	58	40.9	5	9	270	0.00	29.430 
18:30	55.0	55.0	55.0	58	40.5	5	12	270	0.00	29.437 
18:35	54.5	54.5	54.5	58	40.0	5	12	270	0.00	29.446 
18:40	53.9	53.9	53.9	58	39.5	5	14	270	0.00	29.451 
18:45	53.5	53.5	53.5	57	38.6	6	13	270	0.00	29.453 
18:50	53.1	53.1	53.1	57	38.3	7	19	270	0.00	29.458 
18:55	52.8	52.8	52.8	58	38.4	7	13	270	0.00	29.466 
19:00	52.3	52.3	52.3	57	37.5	6	11	270	0.00	29.467 
19:05	52.0	52.0	52.0	58	37.7	4	10	270	0.00	29.470 
19:10	51.7	51.7	51.7	59	37.8	4	18	270	0.00	29.470 
19:15	51.6	51.6	51.6	58	37.3	7	15	270	0.00	29.477 
19:20	51.4	51.4	51.4	58	37.1	5	11	270	0.00	29.477 
19:25	51.3	51.3	51.3	60	37.9	4	9	270	0.00	29.485 
19:30	51.1	51.1	51.1	60	37.7	4	9	270	0.00	29.485 
19:35	50.8	50.8	50.8	60	37.4	3	9	270	0.00	29.493 
19:40	50.5	50.5	50.5	60	37.1	4	7	270	0.00	29.495 
19:45	50.2	50.2	50.2	60	36.9	4	9	270	0.00	29.495 
19:50	50.1	50.1	50.1	61	37.2	4	9	270	0.00	29.497 
19:55	49.8	48.6	49.8	61	36.9	4	11	270	0.00	29.497 
20:00	49.8	48.0	49.8	59	36.1	5	13	270	0.00	29.503 
20:05	49.8	48.0	49.8	59	36.1	5	11	270	0.00	29.497 
20:10	49.6	48.4	49.6	59	35.9	4	11	270	0.00	29.493 
20:15	49.5	49.5	49.5	59	35.8	3	6	270	0.00	29.497 
20:20	49.4	47.5	49.4	59	35.7	5	16	270	0.00	29.502 
20:25	49.4	48.2	49.4	59	35.7	4	10	270	0.00	29.501 
20:30	49.2	49.2	49.2	59	35.5	3	9	270	0.00	29.507 
20:35	48.9	47.6	48.9	59	35.2	4	10	270	0.00	29.513 
20:40	48.8	48.8	48.8	60	35.5	3	6	248	0.00	29.515 
20:45	48.6	48.6	48.6	60	35.3	3	9	270	0.00	29.520 
20:50	48.5	47.1	48.5	59	34.8	4	12	248	0.00	29.518 
20:55	48.3	48.3	48.3	60	35.1	3	7	270	0.00	29.520 
21:00	48.2	48.2	48.2	62	35.8	3	10	248	0.00	29.519 
21:05	48.0	48.0	48.0	62	35.6	3	12	248	0.00	29.521 
21:10	47.9	47.9	47.9	62	35.5	3	5	270	0.00	29.521 
21:15	47.9	46.4	47.9	62	35.5	4	10	270	0.00	29.522 
21:20	47.9	47.9	47.9	62	35.5	3	7	270	0.00	29.522 
21:25	47.7	46.2	47.7	63	35.7	4	9	248	0.00	29.525 
21:30	47.6	47.6	47.6	63	35.6	2	5	248	0.00	29.527 
21:35	47.4	47.4	47.4	64	35.8	2	5	270	0.00	29.526 
21:40	47.4	47.4	47.4	64	35.8	3	11	270	0.00	29.528 
21:45	47.4	45.9	47.4	64	35.8	4	9	248	0.00	29.524 
21:50	47.4	45.9	47.4	64	35.8	4	12	248	0.00	29.527 
21:55	47.4	47.4	47.4	64	35.8	3	9	248	0.00	29.524 
22:00	47.3	47.3	47.3	64	35.7	3	8	270	0.00	29.524 
22:05	47.1	47.1	47.1	64	35.6	3	9	248	0.00	29.524 
22:10	47.0	47.0	47.0	64	35.5	2	7	248	0.00	29.525 
22:15	46.8	46.8	46.8	65	35.7	2	5	248	0.00	29.529 
22:20	47.0	47.0	47.0	64	35.5	3	7	248	0.00	29.529 
22:25	47.0	47.0	47.0	65	35.9	3	7	248	0.00	29.528 
22:30	47.0	47.0	47.0	64	35.5	2	6	248	0.00	29.530 
22:35	47.0	47.0	47.0	64	35.5	2	6	248	0.00	29.531 
22:40	47.0	47.0	47.0	64	35.5	2	7	248	0.00	29.531 
22:45	47.1	47.1	47.1	64	35.6	3	11	248	0.00	29.531 
22:50	47.3	47.3	47.3	64	35.7	2	9	248	0.00	29.531 
22:55	47.3	47.3	47.3	64	35.7	2	5	248	0.00	29.533 
23:00	47.4	45.9	47.4	63	35.4	4	10	248	0.00	29.531 
23:05	47.4	47.4	47.4	64	35.8	2	5	248	0.00	29.534 
23:10	47.4	45.2	47.4	63	35.4	5	11	270	0.00	29.532 
23:15	47.6	46.1	47.6	62	35.2	4	11	248	0.00	29.530 
23:20	47.6	47.6	47.6	63	35.6	3	6	248	0.00	29.530 
23:25	47.6	46.1	47.6	63	35.6	4	7	248	0.00	29.527 
23:30	47.6	47.6	47.6	63	35.6	3	7	248	0.00	29.527 
23:35	47.4	45.9	47.4	62	35.0	4	10	248	0.00	29.527 
23:40	47.4	45.9	47.4	62	35.0	4	10	248	0.00	29.529 
23:45	47.3	44.5	47.3	61	34.5	6	15	270	0.00	29.528 
23:50	47.3	45.8	47.3	61	34.5	4	13	270	0.00	29.531 
23:55	47.1	44.8	47.1	61	34.4	5	15	270	0.00	29.531 

CoCoRaHS
IN-AL-39
A2 Web Hosting
Creative Commons License
GoDaddy
Look for:

loaded 2017-10-19 20:10:34 • last modified 2010-11-18 10:43:29
Privacy PolicyDisclaimer
• wx.awcolley.com is powered by PmWiki v.2002016 •
• all content (unless otherwise noted) © 2017 A W Colley